sensor_id;sensor_type;location;lat;lon;timestamp;pressure;altitude;pressure_sealevel;temperature;humidity
66021;BME280;52789;59.980;30.346;2023-04-20T00:00:26;102994.59;;;6.54;37.72
66021;BME280;52789;59.980;30.346;2023-04-20T00:02:52;102988.28;;;6.57;37.55
66021;BME280;52789;59.980;30.346;2023-04-20T00:05:17;102985.56;;;6.58;37.57
66021;BME280;52789;59.980;30.346;2023-04-20T00:07:43;102989.06;;;6.59;37.43
66021;BME280;52789;59.980;30.346;2023-04-20T00:10:08;102988.28;;;6.57;38.27
66021;BME280;52789;59.980;30.346;2023-04-20T00:12:34;102993.75;;;6.53;37.98
66021;BME280;52789;59.980;30.346;2023-04-20T00:15:00;102991.28;;;6.50;37.42
66021;BME280;52789;59.980;30.346;2023-04-20T00:17:25;102989.91;;;6.43;37.57
66021;BME280;52789;59.980;30.346;2023-04-20T00:19:50;102982.28;;;6.37;37.60
66021;BME280;52789;59.980;30.346;2023-04-20T00:22:15;102981.75;;;6.31;37.42
66021;BME280;52789;59.980;30.346;2023-04-20T00:24:41;102981.22;;;6.24;38.33
66021;BME280;52789;59.980;30.346;2023-04-20T00:27:06;102982.38;;;6.18;38.38
66021;BME280;52789;59.980;30.346;2023-04-20T00:29:31;102972.81;;;6.16;37.92
66021;BME280;52789;59.980;30.346;2023-04-20T00:31:57;102970.25;;;6.14;38.55
66021;BME280;52789;59.980;30.346;2023-04-20T00:34:22;102972.06;;;6.14;38.75
66021;BME280;52789;59.980;30.346;2023-04-20T00:36:47;102972.91;;;6.14;38.52
66021;BME280;52789;59.980;30.346;2023-04-20T00:39:13;102970.94;;;6.18;38.81
66021;BME280;52789;59.980;30.346;2023-04-20T00:41:38;102965.50;;;6.21;38.49
66021;BME280;52789;59.980;30.346;2023-04-20T00:44:05;102959.19;;;6.24;38.91
66021;BME280;52789;59.980;30.346;2023-04-20T00:46:31;102956.28;;;6.28;38.64
66021;BME280;52789;59.980;30.346;2023-04-20T00:48:56;102959.72;;;6.30;38.53
66021;BME280;52789;59.980;30.346;2023-04-20T00:51:22;102961.25;;;6.34;39.28
66021;BME280;52789;59.980;30.346;2023-04-20T00:53:47;102961.03;;;6.39;39.08
66021;BME280;52789;59.980;30.346;2023-04-20T00:56:13;102959.84;;;6.44;39.34
66021;BME280;52789;59.980;30.346;2023-04-20T00:58:39;102960.63;;;6.46;39.09
66021;BME280;52789;59.980;30.346;2023-04-20T01:01:05;102956.88;;;6.50;39.34
66021;BME280;52789;59.980;30.346;2023-04-20T01:03:31;102961.13;;;6.53;39.17
66021;BME280;52789;59.980;30.346;2023-04-20T01:05:57;102957.53;;;6.54;39.21
66021;BME280;52789;59.980;30.346;2023-04-20T01:08:25;102956.69;;;6.53;39.43
66021;BME280;52789;59.980;30.346;2023-04-20T01:10:51;102952.34;;;6.52;39.74
66021;BME280;52789;59.980;30.346;2023-04-20T01:13:17;102957.72;;;6.51;40.14
66021;BME280;52789;59.980;30.346;2023-04-20T01:15:42;102953.28;;;6.51;40.02
66021;BME280;52789;59.980;30.346;2023-04-20T01:18:07;102953.28;;;6.51;40.21
66021;BME280;52789;59.980;30.346;2023-04-20T01:20:33;102955.06;;;6.51;40.69
66021;BME280;52789;59.980;30.346;2023-04-20T01:22:59;102945.41;;;6.50;40.71
66021;BME280;52789;59.980;30.346;2023-04-20T01:25:24;102953.28;;;6.51;40.52
66021;BME280;52789;59.980;30.346;2023-04-20T01:27:49;102947.97;;;6.51;41.12
66021;BME280;52789;59.980;30.346;2023-04-20T01:30:15;102947.03;;;6.52;41.32
66021;BME280;52789;59.980;30.346;2023-04-20T01:32:41;102937.41;;;6.51;41.16
66021;BME280;52789;59.980;30.346;2023-04-20T01:35:07;102944.41;;;6.52;41.53
66021;BME280;52789;59.980;30.346;2023-04-20T01:37:32;102941.75;;;6.52;41.81
66021;BME280;52789;59.980;30.346;2023-04-20T01:39:58;102937.41;;;6.51;42.36
66021;BME280;52789;59.980;30.346;2023-04-20T01:42:23;102935.59;;;6.52;41.64
66021;BME280;52789;59.980;30.346;2023-04-20T01:44:48;102937.31;;;6.53;42.23
66021;BME280;52789;59.980;30.346;2023-04-20T01:47:14;102937.22;;;6.55;41.78
66021;BME280;52789;59.980;30.346;2023-04-20T01:49:39;102933.63;;;6.56;41.45
66021;BME280;52789;59.980;30.346;2023-04-20T01:52:05;102934.41;;;6.58;42.23
66021;BME280;52789;59.980;30.346;2023-04-20T01:54:30;102929.09;;;6.58;41.89
66021;BME280;52789;59.980;30.346;2023-04-20T01:56:55;102932.69;;;6.57;42.90
66021;BME280;52789;59.980;30.346;2023-04-20T01:59:21;102931.00;;;6.56;43.07
66021;BME280;52789;59.980;30.346;2023-04-20T02:01:47;102933.63;;;6.56;42.96
66021;BME280;52789;59.980;30.346;2023-04-20T02:04:12;102929.19;;;6.56;42.95
66021;BME280;52789;59.980;30.346;2023-04-20T02:06:37;102921.34;;;6.55;42.23
66021;BME280;52789;59.980;30.346;2023-04-20T02:09:03;102926.63;;;6.55;41.95
66021;BME280;52789;59.980;30.346;2023-04-20T02:11:28;102923.03;;;6.56;42.24
66021;BME280;52789;59.980;30.346;2023-04-20T02:13:54;102927.50;;;6.55;41.70
66021;BME280;52789;59.980;30.346;2023-04-20T02:16:19;102924.75;;;6.57;41.82
66021;BME280;52789;59.980;30.346;2023-04-20T02:18:45;102922.09;;;6.57;42.38
66021;BME280;52789;59.980;30.346;2023-04-20T02:21:11;102918.53;;;6.58;43.01
66021;BME280;52789;59.980;30.346;2023-04-20T02:23:36;102920.31;;;6.57;42.59
66021;BME280;52789;59.980;30.346;2023-04-20T02:26:01;102910.56;;;6.58;43.45
66021;BME280;52789;59.980;30.346;2023-04-20T02:28:27;102917.75;;;6.56;42.92
66021;BME280;52789;59.980;30.346;2023-04-20T02:30:52;102916.91;;;6.55;43.11
66021;BME280;52789;59.980;30.346;2023-04-20T02:33:17;102917.75;;;6.56;43.08
66021;BME280;52789;59.980;30.346;2023-04-20T02:35:45;102914.16;;;6.57;43.26
66021;BME280;52789;59.980;30.346;2023-04-20T02:38:10;102907.94;;;6.58;42.64
66021;BME280;52789;59.980;30.346;2023-04-20T02:40:35;102905.28;;;6.58;42.74
66021;BME280;52789;59.980;30.346;2023-04-20T02:43:01;102900.00;;;6.58;43.16
66021;BME280;52789;59.980;30.346;2023-04-20T02:45:26;102907.00;;;6.59;42.58
66021;BME280;52789;59.980;30.346;2023-04-20T02:47:51;102901.88;;;6.56;42.32
66021;BME280;52789;59.980;30.346;2023-04-20T02:50:17;102900.16;;;6.55;42.42
66021;BME280;52789;59.980;30.346;2023-04-20T02:52:42;102906.13;;;6.58;42.03
66021;BME280;52789;59.980;30.346;2023-04-20T02:55:07;102905.03;;;6.62;42.61
66021;BME280;52789;59.980;30.346;2023-04-20T02:57:33;102896.06;;;6.65;42.34
66021;BME280;52789;59.980;30.346;2023-04-20T02:59:58;102897.78;;;6.66;42.74
66021;BME280;52789;59.980;30.346;2023-04-20T03:02:23;102893.34;;;6.66;42.16
66021;BME280;52789;59.980;30.346;2023-04-20T03:04:49;102899.34;;;6.70;42.14
66021;BME280;52789;59.980;30.346;2023-04-20T03:07:14;102893.94;;;6.71;42.54
66021;BME280;52789;59.980;30.346;2023-04-20T03:09:40;102895.47;;;6.75;42.66
66021;BME280;52789;59.980;30.346;2023-04-20T03:12:05;102894.38;;;6.79;42.76
66021;BME280;52789;59.980;30.346;2023-04-20T03:14:30;102891.63;;;6.81;43.33
66021;BME280;52789;59.980;30.346;2023-04-20T03:16:56;102893.25;;;6.83;42.67
66021;BME280;52789;59.980;30.346;2023-04-20T03:19:21;102887.84;;;6.85;42.69
66021;BME280;52789;59.980;30.346;2023-04-20T03:21:47;102887.50;;;6.91;43.17
66021;BME280;52789;59.980;30.346;2023-04-20T03:24:12;102887.00;;;7.00;43.15
66021;BME280;52789;59.980;30.346;2023-04-20T03:26:37;102891.94;;;7.06;42.75
66021;BME280;52789;59.980;30.346;2023-04-20T03:29:03;102881.00;;;7.12;43.66
66021;BME280;52789;59.980;30.346;2023-04-20T03:31:28;102886.88;;;7.18;43.93
66021;BME280;52789;59.980;30.346;2023-04-20T03:33:54;102883.19;;;7.20;44.42
66021;BME280;52789;59.980;30.346;2023-04-20T03:36:19;102887.13;;;7.29;43.69
66021;BME280;52789;59.980;30.346;2023-04-20T03:38:45;102886.97;;;7.46;43.57
66021;BME280;52789;59.980;30.346;2023-04-20T03:41:10;102884.66;;;7.70;42.27
66021;BME280;52789;59.980;30.346;2023-04-20T03:43:36;102877.78;;;7.96;41.86
66021;BME280;52789;59.980;30.346;2023-04-20T03:46:01;102881.38;;;8.23;41.38
66021;BME280;52789;59.980;30.346;2023-04-20T03:48:26;102880.53;;;8.51;41.03
66021;BME280;52789;59.980;30.346;2023-04-20T03:50:52;102878.84;;;8.77;39.71
66021;BME280;52789;59.980;30.346;2023-04-20T03:53:17;102879.31;;;9.11;40.21
66021;BME280;52789;59.980;30.346;2023-04-20T03:55:42;102877.66;;;9.35;39.57
66021;BME280;52789;59.980;30.346;2023-04-20T03:58:08;102875.13;;;9.34;39.33
66021;BME280;52789;59.980;30.346;2023-04-20T04:00:33;102872.56;;;9.32;39.52
66021;BME280;52789;59.980;30.346;2023-04-20T04:02:59;102874.84;;;9.11;39.06
66021;BME280;52789;59.980;30.346;2023-04-20T04:05:24;102875.34;;;8.77;39.90
66021;BME280;52789;59.980;30.346;2023-04-20T04:07:50;102872.50;;;8.38;40.25
66021;BME280;52789;59.980;30.346;2023-04-20T04:10:15;102865.28;;;8.12;40.36
66021;BME280;52789;59.980;30.346;2023-04-20T04:12:43;102868.19;;;7.93;40.49
66021;BME280;52789;59.980;30.346;2023-04-20T04:15:08;102875.47;;;7.75;40.90
66021;BME280;52789;59.980;30.346;2023-04-20T04:17:34;102863.25;;;7.59;41.32
66021;BME280;52789;59.980;30.346;2023-04-20T04:19:59;102869.34;;;7.45;42.09
66021;BME280;52789;59.980;30.346;2023-04-20T04:22:25;102863.94;;;7.32;42.37
66021;BME280;52789;59.980;30.346;2023-04-20T04:24:50;102870.03;;;7.19;43.58
66021;BME280;52789;59.980;30.346;2023-04-20T04:27:16;102864.59;;;7.06;43.23
66021;BME280;52789;59.980;30.346;2023-04-20T04:29:42;102866.16;;;6.94;43.75
66021;BME280;52789;59.980;30.346;2023-04-20T04:32:08;102872.72;;;6.87;43.22
66021;BME280;52789;59.980;30.346;2023-04-20T04:34:35;102867.69;;;6.82;43.93
66021;BME280;52789;59.980;30.346;2023-04-20T04:37:01;102874.22;;;6.77;43.46
66021;BME280;52789;59.980;30.346;2023-04-20T04:39:27;102877.63;;;6.79;43.11
66021;BME280;52789;59.980;30.346;2023-04-20T04:41:52;102866.84;;;6.82;42.68
66021;BME280;52789;59.980;30.346;2023-04-20T04:44:18;102866.75;;;6.83;42.85
66021;BME280;52789;59.980;30.346;2023-04-20T04:46:43;102871.97;;;6.85;43.02
66021;BME280;52789;59.980;30.346;2023-04-20T04:49:09;102868.28;;;6.88;43.02
66021;BME280;52789;59.980;30.346;2023-04-20T04:51:35;102876.06;;;6.91;42.62
66021;BME280;52789;59.980;30.346;2023-04-20T04:54:00;102866.16;;;6.94;42.63
66021;BME280;52789;59.980;30.346;2023-04-20T04:56:26;102868.72;;;6.96;42.97
66021;BME280;52789;59.980;30.346;2023-04-20T04:58:52;102864.88;;;7.01;42.58
66021;BME280;52789;59.980;30.346;2023-04-20T05:01:17;102866.88;;;7.12;42.02
66021;BME280;52789;59.980;30.346;2023-04-20T05:03:43;102868.00;;;7.24;42.59
66021;BME280;52789;59.980;30.346;2023-04-20T05:06:08;102864.69;;;7.34;43.09
66021;BME280;52789;59.980;30.346;2023-04-20T05:08:33;102858.66;;;7.46;42.61
66021;BME280;52789;59.980;30.346;2023-04-20T05:10:59;102864.28;;;7.56;42.37
66021;BME280;52789;59.980;30.346;2023-04-20T05:13:24;102855.00;;;7.63;42.15
66021;BME280;52789;59.980;30.346;2023-04-20T05:15:50;102857.84;;;7.74;41.75
66021;BME280;52789;59.980;30.346;2023-04-20T05:18:15;102851.16;;;7.83;41.65
66021;BME280;52789;59.980;30.346;2023-04-20T05:20:41;102844.13;;;7.96;42.03
66021;BME280;52789;59.980;30.346;2023-04-20T05:23:06;102848.59;;;8.10;42.22
66021;BME280;52789;59.980;30.346;2023-04-20T05:25:41;102820.91;;;8.14;41.95
66021;BME280;52789;59.980;30.346;2023-04-20T05:28:06;102847.44;;;8.43;41.71
66021;BME280;52789;59.980;30.346;2023-04-20T05:30:31;102850.31;;;8.66;41.56
66021;BME280;52789;59.980;30.346;2023-04-20T05:32:57;102841.22;;;8.97;40.74
66021;BME280;52789;59.980;30.346;2023-04-20T05:35:23;102847.00;;;9.17;40.42
66021;BME280;52789;59.980;30.346;2023-04-20T05:37:48;102843.53;;;9.29;40.70
66021;BME280;52789;59.980;30.346;2023-04-20T05:40:13;102839.81;;;9.44;39.91
66021;BME280;52789;59.980;30.346;2023-04-20T05:42:39;102834.81;;;9.52;39.05
66021;BME280;52789;59.980;30.346;2023-04-20T05:45:05;102827.69;;;9.53;39.52
66021;BME280;52789;59.980;30.346;2023-04-20T05:47:31;102832.25;;;9.51;39.46
66021;BME280;52789;59.980;30.346;2023-04-20T05:49:56;102835.22;;;9.46;39.76
66021;BME280;52789;59.980;30.346;2023-04-20T05:52:21;102832.78;;;9.43;39.66
66021;BME280;52789;59.980;30.346;2023-04-20T05:54:47;102829.81;;;9.48;39.42
66021;BME280;52789;59.980;30.346;2023-04-20T05:57:13;102826.72;;;9.54;39.31
66021;BME280;52789;59.980;30.346;2023-04-20T05:59:39;102823.13;;;9.68;39.41
66021;BME280;52789;59.980;30.346;2023-04-20T06:02:04;102827.47;;;9.94;39.46
66021;BME280;52789;59.980;30.346;2023-04-20T06:04:30;102820.63;;;10.15;38.97
66021;BME280;52789;59.980;30.346;2023-04-20T06:06:55;102821.06;;;10.22;37.93
66021;BME280;52789;59.980;30.346;2023-04-20T06:09:20;102820.97;;;9.98;38.89
66021;BME280;52789;59.980;30.346;2023-04-20T06:11:46;102823.09;;;9.80;39.45
66021;BME280;52789;59.980;30.346;2023-04-20T06:14:11;102822.38;;;9.66;39.64
66021;BME280;52789;59.980;30.346;2023-04-20T06:16:38;102819.28;;;9.46;40.05
66021;BME280;52789;59.980;30.346;2023-04-20T06:19:04;102812.69;;;9.39;39.02
66021;BME280;52789;59.980;30.346;2023-04-20T06:21:29;102815.44;;;9.38;40.24
66021;BME280;52789;59.980;30.346;2023-04-20T06:23:55;102808.75;;;9.32;39.92
66021;BME280;52789;59.980;30.346;2023-04-20T06:26:21;102811.19;;;9.35;39.87
66021;BME280;52789;59.980;30.346;2023-04-20T06:28:47;102811.94;;;9.50;40.40
66021;BME280;52789;59.980;30.346;2023-04-20T06:31:12;102807.50;;;9.63;40.23
66021;BME280;52789;59.980;30.346;2023-04-20T06:33:38;102800.66;;;9.72;40.56
66021;BME280;52789;59.980;30.346;2023-04-20T06:36:06;102800.00;;;9.81;40.24
66021;BME280;52789;59.980;30.346;2023-04-20T06:38:32;102807.88;;;9.82;40.60
66021;BME280;52789;59.980;30.346;2023-04-20T06:40:58;102789.38;;;9.81;39.98
66021;BME280;52789;59.980;30.346;2023-04-20T06:43:26;102785.34;;;9.88;39.92
66021;BME280;52789;59.980;30.346;2023-04-20T06:45:52;102784.00;;;10.06;39.96
66021;BME280;52789;59.980;30.346;2023-04-20T06:48:17;102790.50;;;10.15;41.20
66021;BME280;52789;59.980;30.346;2023-04-20T06:50:42;102783.84;;;10.33;40.93
66021;BME280;52789;59.980;30.346;2023-04-20T06:53:08;102782.41;;;10.53;40.29
66021;BME280;52789;59.980;30.346;2023-04-20T06:55:33;102781.44;;;10.78;40.55
66021;BME280;52789;59.980;30.346;2023-04-20T06:57:59;102774.03;;;11.16;39.60
66021;BME280;52789;59.980;30.346;2023-04-20T07:00:24;102760.91;;;11.60;39.04
66021;BME280;52789;59.980;30.346;2023-04-20T07:02:52;102768.59;;;11.87;38.11
66021;BME280;52789;59.980;30.346;2023-04-20T07:05:18;102772.91;;;12.10;37.84
66021;BME280;52789;59.980;30.346;2023-04-20T07:07:43;102765.75;;;12.10;37.69
66021;BME280;52789;59.980;30.346;2023-04-20T07:10:11;102762.81;;;12.14;37.82
66021;BME280;52789;59.980;30.346;2023-04-20T07:12:37;102760.41;;;12.22;37.27
66021;BME280;52789;59.980;30.346;2023-04-20T07:15:03;102761.13;;;12.13;36.93
66021;BME280;52789;59.980;30.346;2023-04-20T07:17:29;102768.44;;;11.99;37.52
66021;BME280;52789;59.980;30.346;2023-04-20T07:20:37;102773.41;;;11.82;37.28
66021;BME280;52789;59.980;30.346;2023-04-20T07:22:49;102767.69;;;11.53;37.97
66021;BME280;52789;59.980;30.346;2023-04-20T07:25:15;102760.88;;;11.48;38.44
66021;BME280;52789;59.980;30.346;2023-04-20T07:27:42;102765.84;;;11.53;38.57
66021;BME280;52789;59.980;30.346;2023-04-20T07:30:10;102762.94;;;11.56;38.06
66021;BME280;52789;59.980;30.346;2023-04-20T07:32:36;102769.38;;;11.54;38.43
66021;BME280;52789;59.980;30.346;2023-04-20T07:35:02;102759.69;;;11.64;38.26
66021;BME280;52789;59.980;30.346;2023-04-20T07:37:28;102769.53;;;11.63;37.85
66021;BME280;52789;59.980;30.346;2023-04-20T07:39:54;102760.66;;;11.74;37.68
66021;BME280;52789;59.980;30.346;2023-04-20T07:42:19;102749.91;;;11.87;37.14
66021;BME280;52789;59.980;30.346;2023-04-20T07:44:45;102754.34;;;12.08;37.56
66021;BME280;52789;59.980;30.346;2023-04-20T07:47:11;102756.28;;;12.06;37.26
66021;BME280;52789;59.980;30.346;2023-04-20T07:49:36;102749.84;;;12.09;37.47
66021;BME280;52789;59.980;30.346;2023-04-20T07:52:04;102750.50;;;11.90;38.02
66021;BME280;52789;59.980;30.346;2023-04-20T07:54:30;102746.72;;;11.70;38.37
66021;BME280;52789;59.980;30.346;2023-04-20T07:56:57;102744.66;;;11.63;39.01
66021;BME280;52789;59.980;30.346;2023-04-20T07:59:22;102744.63;;;11.74;39.11
66021;BME280;52789;59.980;30.346;2023-04-20T08:01:47;102738.38;;;11.86;38.54
66021;BME280;52789;59.980;30.346;2023-04-20T08:04:13;102741.03;;;11.97;38.63
66021;BME280;52789;59.980;30.346;2023-04-20T08:06:38;102739.91;;;12.00;38.28
66021;BME280;52789;59.980;30.346;2023-04-20T08:09:03;102729.50;;;11.97;38.60
66021;BME280;52789;59.980;30.346;2023-04-20T08:11:29;102737.84;;;12.15;38.32
66021;BME280;52789;59.980;30.346;2023-04-20T08:13:56;102723.25;;;12.19;38.29
66021;BME280;52789;59.980;30.346;2023-04-20T08:16:21;102725.59;;;12.01;38.53
66021;BME280;52789;59.980;30.346;2023-04-20T08:18:46;102717.75;;;11.88;38.75
66021;BME280;52789;59.980;30.346;2023-04-20T08:21:11;102727.78;;;11.96;38.53
66021;BME280;52789;59.980;30.346;2023-04-20T08:23:37;102720.00;;;12.04;38.27
66021;BME280;52789;59.980;30.346;2023-04-20T08:26:03;102718.91;;;12.06;38.48
66021;BME280;52789;59.980;30.346;2023-04-20T08:28:31;102715.16;;;11.98;38.24
66021;BME280;52789;59.980;30.346;2023-04-20T08:30:59;102712.06;;;12.14;38.36
66021;BME280;52789;59.980;30.346;2023-04-20T08:33:24;102722.75;;;12.14;38.21
66021;BME280;52789;59.980;30.346;2023-04-20T08:36:05;102719.41;;;12.00;38.60
66021;BME280;52789;59.980;30.346;2023-04-20T08:38:31;102719.66;;;11.75;39.17
66021;BME280;52789;59.980;30.346;2023-04-20T08:40:57;102719.03;;;11.71;39.46
66021;BME280;52789;59.980;30.346;2023-04-20T08:43:22;102716.50;;;11.70;39.31
66021;BME280;52789;59.980;30.346;2023-04-20T08:45:48;102715.03;;;11.66;38.98
66021;BME280;52789;59.980;30.346;2023-04-20T08:48:16;102718.44;;;11.68;38.75
66021;BME280;52789;59.980;30.346;2023-04-20T08:50:44;102709.22;;;11.72;38.58
66021;BME280;52789;59.980;30.346;2023-04-20T08:53:10;102706.28;;;11.75;38.59
66021;BME280;52789;59.980;30.346;2023-04-20T08:55:35;102700.22;;;11.73;38.44
66021;BME280;52789;59.980;30.346;2023-04-20T08:58:01;102705.97;;;11.79;38.27
66021;BME280;52789;59.980;30.346;2023-04-20T09:00:27;102695.88;;;11.72;38.32
66021;BME280;52789;59.980;30.346;2023-04-20T09:02:53;102696.38;;;11.66;38.19
66021;BME280;52789;59.980;30.346;2023-04-20T09:05:25;102686.41;;;11.68;37.90
66021;BME280;52789;59.980;30.346;2023-04-20T09:07:52;102700.00;;;11.65;38.42
66021;BME280;52789;59.980;30.346;2023-04-20T09:10:20;102687.63;;;11.75;38.04
66021;BME280;52789;59.980;30.346;2023-04-20T09:12:48;102697.34;;;11.87;37.89
66021;BME280;52789;59.980;30.346;2023-04-20T09:15:23;102690.19;;;11.88;37.67
66021;BME280;52789;59.980;30.346;2023-04-20T09:17:48;102687.84;;;11.72;37.80
66021;BME280;52789;59.980;30.346;2023-04-20T09:20:13;102690.41;;;11.73;37.81
66021;BME280;52789;59.980;30.346;2023-04-20T09:22:40;102691.41;;;11.61;38.07
66021;BME280;52789;59.980;30.346;2023-04-20T09:25:12;102683.53;;;11.60;37.82
66021;BME280;52789;59.980;30.346;2023-04-20T09:27:37;102681.31;;;11.65;37.69
66021;BME280;52789;59.980;30.346;2023-04-20T09:30:04;102678.78;;;11.52;37.76
66021;BME280;52789;59.980;30.346;2023-04-20T09:32:33;102670.31;;;11.36;38.43
66021;BME280;52789;59.980;30.346;2023-04-20T09:34:59;102667.88;;;11.44;38.46
66021;BME280;52789;59.980;30.346;2023-04-20T09:37:25;102663.34;;;11.56;38.42
66021;BME280;52789;59.980;30.346;2023-04-20T09:39:50;102670.03;;;11.72;37.75
66021;BME280;52789;59.980;30.346;2023-04-20T09:42:19;102666.03;;;11.89;37.64
66021;BME280;52789;59.980;30.346;2023-04-20T09:44:45;102659.94;;;11.98;37.43
66021;BME280;52789;59.980;30.346;2023-04-20T09:47:16;102660.03;;;12.08;37.13
66021;BME280;52789;59.980;30.346;2023-04-20T09:49:43;102659.34;;;11.95;37.40
66021;BME280;52789;59.980;30.346;2023-04-20T09:52:09;102656.34;;;11.88;37.85
66021;BME280;52789;59.980;30.346;2023-04-20T09:54:35;102653.03;;;11.96;37.73
66021;BME280;52789;59.980;30.346;2023-04-20T09:57:01;102657.91;;;12.23;37.61
66021;BME280;52789;59.980;30.346;2023-04-20T09:59:27;102644.97;;;12.39;37.22
66021;BME280;52789;59.980;30.346;2023-04-20T10:01:53;102638.78;;;12.59;37.05
66021;BME280;52789;59.980;30.346;2023-04-20T10:04:19;102635.78;;;12.94;36.83
66021;BME280;52789;59.980;30.346;2023-04-20T10:06:51;102628.00;;;13.12;36.75
66021;BME280;52789;59.980;30.346;2023-04-20T10:09:22;102632.28;;;13.24;36.53
66021;BME280;52789;59.980;30.346;2023-04-20T10:11:48;102628.63;;;13.25;34.42
66021;BME280;52789;59.980;30.346;2023-04-20T10:14:18;102620.16;;;13.20;33.32
66021;BME280;52789;59.980;30.346;2023-04-20T10:16:44;102617.66;;;13.28;32.89
66021;BME280;52789;59.980;30.346;2023-04-20T10:19:10;102620.59;;;13.25;32.58
66021;BME280;52789;59.980;30.346;2023-04-20T10:21:45;102623.84;;;13.29;33.08
66021;BME280;52789;59.980;30.346;2023-04-20T10:24:11;102619.34;;;13.29;33.06
66021;BME280;52789;59.980;30.346;2023-04-20T10:26:43;102620.22;;;13.30;33.60
66021;BME280;52789;59.980;30.346;2023-04-20T10:29:09;102614.59;;;13.33;33.78
66021;BME280;52789;59.980;30.346;2023-04-20T10:34:01;102613.78;;;13.52;34.35
66021;BME280;52789;59.980;30.346;2023-04-20T10:36:28;102614.97;;;13.28;34.40
66021;BME280;52789;59.980;30.346;2023-04-20T10:38:55;102607.41;;;13.03;34.94
66021;BME280;52789;59.980;30.346;2023-04-20T10:41:21;102601.41;;;12.90;35.17
66021;BME280;52789;59.980;30.346;2023-04-20T10:43:46;102598.75;;;13.20;35.31
66021;BME280;52789;59.980;30.346;2023-04-20T10:46:16;102599.84;;;13.48;34.73
66021;BME280;52789;59.980;30.346;2023-04-20T10:48:55;102597.94;;;13.79;34.38
66021;BME280;52789;59.980;30.346;2023-04-20T10:51:20;102593.56;;;14.07;34.21
66021;BME280;52789;59.980;30.346;2023-04-20T10:53:56;102595.53;;;14.15;33.90
66021;BME280;52789;59.980;30.346;2023-04-20T10:56:21;102592.16;;;14.13;34.30
66021;BME280;52789;59.980;30.346;2023-04-20T10:58:47;102588.09;;;13.99;33.69
66021;BME280;52789;59.980;30.346;2023-04-20T11:01:12;102588.78;;;14.01;34.40
66021;BME280;52789;59.980;30.346;2023-04-20T11:03:38;102585.97;;;14.12;33.94
66021;BME280;52789;59.980;30.346;2023-04-20T11:06:04;102583.41;;;14.11;32.92
66021;BME280;52789;59.980;30.346;2023-04-20T11:08:39;102569.91;;;13.93;33.86
66021;BME280;52789;59.980;30.346;2023-04-20T11:11:05;102577.66;;;13.96;33.99
66021;BME280;52789;59.980;30.346;2023-04-20T11:13:31;102577.38;;;13.89;34.48
66021;BME280;52789;59.980;30.346;2023-04-20T11:15:57;102575.22;;;13.83;33.19
66021;BME280;52789;59.980;30.346;2023-04-20T11:18:22;102573.41;;;13.74;33.45
66021;BME280;52789;59.980;30.346;2023-04-20T11:20:48;102567.56;;;13.50;33.15
66021;BME280;52789;59.980;30.346;2023-04-20T11:23:14;102572.63;;;13.33;32.93
66021;BME280;52789;59.980;30.346;2023-04-20T11:25:47;102568.63;;;13.18;33.39
66021;BME280;52789;59.980;30.346;2023-04-20T11:28:14;102565.94;;;13.18;33.49
66021;BME280;52789;59.980;30.346;2023-04-20T11:30:39;102570.13;;;13.11;33.45
66021;BME280;52789;59.980;30.346;2023-04-20T11:33:05;102569.97;;;13.03;33.82
66021;BME280;52789;59.980;30.346;2023-04-20T11:35:40;102562.84;;;12.92;33.39
66021;BME280;52789;59.980;30.346;2023-04-20T11:38:06;102562.94;;;12.81;33.73
66021;BME280;52789;59.980;30.346;2023-04-20T11:40:32;102556.31;;;12.76;33.97
66021;BME280;52789;59.980;30.346;2023-04-20T11:42:58;102558.34;;;12.62;34.08
66021;BME280;52789;59.980;30.346;2023-04-20T11:45:30;102556.88;;;12.49;34.33
66021;BME280;52789;59.980;30.346;2023-04-20T11:47:56;102548.00;;;12.48;34.39
66021;BME280;52789;59.980;30.346;2023-04-20T11:50:22;102549.16;;;12.55;34.48
66021;BME280;52789;59.980;30.346;2023-04-20T11:52:48;102544.41;;;12.59;34.83
66021;BME280;52789;59.980;30.346;2023-04-20T11:55:14;102542.31;;;12.62;34.65
66021;BME280;52789;59.980;30.346;2023-04-20T11:57:39;102546.88;;;12.30;34.77
66021;BME280;52789;59.980;30.346;2023-04-20T12:00:05;102540.19;;;12.15;35.45
66021;BME280;52789;59.980;30.346;2023-04-20T12:02:31;102540.03;;;11.95;35.62
66021;BME280;52789;59.980;30.346;2023-04-20T12:04:56;102524.66;;;11.76;35.81
66021;BME280;52789;59.980;30.346;2023-04-20T12:07:21;102530.56;;;11.59;36.52
66021;BME280;52789;59.980;30.346;2023-04-20T12:09:47;102537.59;;;11.60;36.75
66021;BME280;52789;59.980;30.346;2023-04-20T12:12:13;102534.19;;;11.58;36.57
66021;BME280;52789;59.980;30.346;2023-04-20T12:14:38;102522.88;;;11.66;36.97
66021;BME280;52789;59.980;30.346;2023-04-20T12:17:03;102528.81;;;11.69;37.93
66021;BME280;52789;59.980;30.346;2023-04-20T12:19:29;102527.97;;;11.69;38.83
66021;BME280;52789;59.980;30.346;2023-04-20T12:21:54;102535.19;;;11.57;38.96
66021;BME280;52789;59.980;30.346;2023-04-20T12:24:20;102537.91;;;11.24;40.18
66021;BME280;52789;59.980;30.346;2023-04-20T12:26:45;102527.41;;;11.00;40.59
66021;BME280;52789;59.980;30.346;2023-04-20T12:29:11;102528.34;;;10.88;41.54
66021;BME280;52789;59.980;30.346;2023-04-20T12:31:42;102522.06;;;10.89;41.24
66021;BME280;52789;59.980;30.346;2023-04-20T12:34:07;102514.06;;;11.00;42.43
66021;BME280;52789;59.980;30.346;2023-04-20T12:36:32;102518.91;;;11.06;42.50
66021;BME280;52789;59.980;30.346;2023-04-20T12:38:59;102517.94;;;10.96;43.82
66021;BME280;52789;59.980;30.346;2023-04-20T12:41:24;102514.69;;;10.81;44.22